Terminal Aerodrome Forecast
Issued by NWS Wilmington, OH

Current Version | Previous Version | Graphics & Text | Print | Product List | Glossary On
Versions: 1 2 3 4 5 6 7 8 9 10 11 12 13 14 15 16 17 18 19 20 21
000
FTUS41 KILN 280500
TAFILN
TAF
KILN 280530Z 2806/2906 28009KT P6SM FEW050
     FM280900 30010KT P6SM BKN018
     FM281500 31012KT P6SM -SHRA BKN025
     FM282100 32012KT P6SM BKN035
     FM290100 32008KT P6SM SCT035=

USA.gov is the U.S. government's official web portal to all federal, state and local government web resources and services.